createdAt,value
2022-08-19T00:00:32.617Z,6.87
2022-08-19T00:02:59.495Z,7.53
2022-08-19T00:05:26.240Z,7.32
2022-08-19T00:07:53.058Z,7.55
2022-08-19T00:10:21.218Z,7.03
2022-08-19T00:12:48.465Z,7.15
2022-08-19T00:15:18.178Z,7.70
2022-08-19T00:17:46.441Z,7.53
2022-08-19T00:20:18.054Z,7.10
2022-08-19T00:22:46.305Z,7.75
2022-08-19T00:25:13.303Z,7.85
2022-08-19T00:27:42.728Z,7.75
2022-08-19T00:30:11.405Z,7.57
2022-08-19T00:32:38.354Z,8.40
2022-08-19T00:35:06.646Z,8.00
2022-08-19T00:37:35.566Z,7.85
2022-08-19T00:40:05.244Z,8.30
2022-08-19T00:42:32.132Z,8.00
2022-08-19T00:44:59.176Z,8.35
2022-08-19T00:47:26.059Z,8.07
2022-08-19T00:49:57.003Z,7.82
2022-08-19T00:52:29.981Z,7.85
2022-08-19T00:54:57.881Z,7.93
2022-08-19T00:57:30.660Z,8.93
2022-08-19T01:00:02.512Z,8.27
2022-08-19T01:02:32.192Z,8.23
2022-08-19T01:05:01.381Z,9.07
2022-08-19T01:07:28.230Z,9.63
2022-08-19T01:10:03.255Z,8.02
2022-08-19T01:12:31.176Z,8.38
2022-08-19T01:14:58.704Z,7.87
2022-08-19T01:17:26.212Z,8.80
2022-08-19T01:19:53.081Z,8.27
2022-08-19T01:22:28.691Z,8.57
2022-08-19T01:24:57.927Z,8.38
2022-08-19T01:27:26.277Z,9.18
2022-08-19T01:29:53.057Z,9.18
2022-08-19T01:32:32.303Z,8.38
2022-08-19T01:35:03.029Z,8.50
2022-08-19T01:37:31.574Z,8.40
2022-08-19T01:39:58.776Z,9.48
2022-08-19T01:42:30.127Z,9.13
2022-08-19T01:44:58.208Z,9.20
2022-08-19T01:47:25.369Z,9.02
2022-08-19T01:49:52.080Z,8.70
2022-08-19T01:52:19.056Z,8.40
2022-08-19T01:54:45.715Z,9.13
2022-08-19T01:57:15.160Z,8.63
2022-08-19T01:59:43.827Z,9.10
2022-08-19T02:02:11.426Z,9.25
2022-08-19T02:04:39.484Z,9.40
2022-08-19T02:07:07.295Z,8.85
2022-08-19T02:09:35.653Z,9.02
2022-08-19T02:12:02.778Z,9.18
2022-08-19T02:14:29.425Z,9.73
2022-08-19T02:16:56.174Z,8.65
2022-08-19T02:19:23.391Z,9.25
2022-08-19T02:21:50.092Z,8.60
2022-08-19T02:24:16.966Z,8.98
2022-08-19T02:26:43.952Z,8.27
2022-08-19T02:29:10.683Z,9.25
2022-08-19T02:31:37.388Z,8.63
2022-08-19T02:34:04.493Z,8.75
2022-08-19T02:36:31.623Z,9.45
2022-08-19T02:38:58.543Z,8.70
2022-08-19T02:41:28.703Z,9.38
2022-08-19T02:44:26.695Z,9.38
2022-08-19T02:46:48.210Z,8.77
2022-08-19T02:49:17.443Z,9.32
2022-08-19T02:51:46.775Z,9.90
2022-08-19T02:54:15.211Z,8.48
2022-08-19T02:56:43.598Z,9.38
2022-08-19T02:59:12.624Z,8.73
2022-08-19T03:01:42.203Z,8.55
2022-08-19T03:04:12.352Z,8.93
2022-08-19T03:06:41.854Z,9.18
2022-08-19T03:09:09.303Z,9.50
2022-08-19T03:11:36.259Z,7.70
2022-08-19T03:14:04.635Z,8.68
2022-08-19T03:16:35.425Z,9.32
2022-08-19T03:19:03.880Z,8.57
2022-08-19T03:21:33.895Z,8.98
2022-08-19T03:24:05.082Z,9.23
2022-08-19T03:26:32.177Z,9.15
2022-08-19T03:29:02.098Z,8.85
2022-08-19T03:31:44.351Z,8.90
2022-08-19T03:34:22.256Z,8.32
2022-08-19T03:36:49.635Z,8.45
2022-08-19T03:39:16.822Z,8.02
2022-08-19T03:41:48.275Z,9.57
2022-08-19T03:44:19.261Z,7.93
2022-08-19T03:46:56.320Z,8.13
2022-08-19T03:49:28.441Z,8.02
2022-08-19T03:51:57.860Z,8.65
2022-08-19T03:54:26.427Z,7.72
2022-08-19T03:56:55.758Z,8.55
2022-08-19T03:59:29.422Z,7.95
2022-08-19T04:01:58.493Z,8.30
2022-08-19T04:04:28.995Z,8.10
2022-08-19T04:06:56.789Z,7.57
2022-08-19T04:09:23.870Z,7.30
2022-08-19T04:11:57.065Z,7.78
2022-08-19T04:14:31.361Z,8.60
2022-08-19T04:17:02.605Z,8.18
2022-08-19T04:19:31.495Z,7.53
2022-08-19T04:21:59.527Z,7.80
2022-08-19T04:24:26.412Z,7.82
2022-08-19T04:26:53.362Z,8.13
2022-08-19T04:29:25.618Z,7.97
2022-08-19T04:31:54.668Z,7.97
2022-08-19T04:34:23.558Z,7.68
2022-08-19T04:36:54.587Z,8.02
2022-08-19T04:39:46.263Z,8.30
2022-08-19T04:42:32.466Z,8.02
2022-08-19T04:45:00.008Z,8.00
2022-08-19T04:47:51.435Z,8.02
2022-08-19T04:50:14.782Z,7.95
2022-08-19T04:52:44.566Z,8.88
2022-08-19T04:55:12.357Z,8.30
2022-08-19T04:57:41.522Z,8.05
2022-08-19T05:00:09.982Z,7.60
2022-08-19T05:02:38.705Z,7.72
2022-08-19T05:05:07.418Z,8.52
2022-08-19T05:07:34.629Z,7.62
2022-08-19T05:10:01.502Z,7.78
2022-08-19T05:12:29.781Z,8.02
2022-08-19T05:14:58.466Z,8.13
2022-08-19T05:17:28.789Z,7.05
2022-08-19T05:20:15.988Z,7.97
2022-08-19T05:22:44.962Z,7.82
2022-08-19T05:25:15.802Z,7.20
2022-08-19T05:27:43.138Z,7.12
2022-08-19T05:30:11.621Z,7.37
2022-08-19T05:32:39.428Z,7.60
2022-08-19T05:35:06.991Z,7.25
2022-08-19T05:37:33.767Z,7.32
2022-08-19T05:40:02.412Z,7.30
2022-08-19T05:42:29.384Z,7.95
2022-08-19T05:44:56.979Z,6.93
2022-08-19T05:47:24.152Z,7.18
2022-08-19T05:49:52.286Z,7.72
2022-08-19T05:52:25.471Z,7.37
2022-08-19T05:54:56.279Z,7.80
2022-08-19T05:57:24.290Z,7.00
2022-08-19T05:59:57.681Z,6.90
2022-08-19T06:02:31.861Z,7.20
2022-08-19T06:04:59.401Z,6.85
2022-08-19T06:07:26.320Z,7.45
2022-08-19T06:09:59.626Z,7.40
2022-08-19T06:12:32.365Z,6.90
2022-08-19T06:15:01.048Z,7.82
2022-08-19T06:17:31.298Z,7.80
2022-08-19T06:19:59.464Z,6.82
2022-08-19T06:22:27.359Z,7.03
2022-08-19T06:24:55.512Z,6.87
2022-08-19T06:27:22.809Z,7.00
2022-08-19T06:29:50.031Z,7.55
2022-08-19T06:32:19.389Z,6.72
2022-08-19T06:34:46.492Z,7.22
2022-08-19T06:37:13.807Z,7.57
2022-08-19T06:39:44.031Z,8.18
2022-08-19T06:42:14.204Z,7.37
2022-08-19T06:44:43.802Z,7.60
2022-08-19T06:47:23.870Z,6.87
2022-08-19T06:50:05.370Z,7.37
2022-08-19T06:52:34.999Z,7.40
2022-08-19T06:57:34.822Z,7.57
2022-08-19T07:00:01.956Z,7.78
2022-08-19T07:02:29.232Z,7.75
2022-08-19T07:04:58.865Z,7.65
2022-08-19T07:07:25.880Z,7.40
2022-08-19T07:09:58.485Z,8.38
2022-08-19T07:12:33.942Z,7.15
2022-08-19T07:15:06.029Z,7.15
2022-08-19T07:17:34.609Z,7.35
2022-08-19T07:20:07.009Z,7.50
2022-08-19T07:22:37.483Z,7.00
2022-08-19T07:25:04.797Z,7.43
2022-08-19T07:27:33.646Z,7.82
2022-08-19T07:30:01.191Z,7.12
2022-08-19T07:32:28.147Z,7.05
2022-08-19T07:34:56.682Z,7.43
2022-08-19T07:37:33.053Z,7.60
2022-08-19T07:40:02.055Z,7.10
2022-08-19T07:42:30.928Z,7.70
2022-08-19T07:44:59.376Z,7.30
2022-08-19T07:47:47.492Z,7.25
2022-08-19T07:50:13.368Z,7.35
2022-08-19T07:52:40.997Z,7.10
2022-08-19T07:55:11.443Z,8.45
2022-08-19T07:57:58.227Z,7.45
2022-08-19T08:00:25.041Z,7.97
2022-08-19T08:02:55.850Z,7.18
2022-08-19T08:05:44.248Z,6.90
2022-08-19T08:08:32.109Z,7.43
2022-08-19T08:11:00.324Z,7.80
2022-08-19T08:13:28.111Z,7.35
2022-08-19T08:15:56.712Z,7.65
2022-08-19T08:18:27.956Z,8.02
2022-08-19T08:20:58.427Z,8.07
2022-08-19T08:23:26.677Z,7.15
2022-08-19T08:25:56.623Z,8.15
2022-08-19T08:28:29.400Z,6.97
2022-08-19T08:30:58.067Z,7.85
2022-08-19T08:33:34.841Z,7.22
2022-08-19T08:36:05.977Z,8.18
2022-08-19T08:38:39.083Z,7.95
2022-08-19T08:41:38.657Z,8.35
2022-08-19T08:44:05.772Z,8.43
2022-08-19T08:46:52.756Z,7.87
2022-08-19T08:49:46.289Z,7.97
2022-08-19T08:52:36.274Z,7.62
2022-08-19T08:55:14.881Z,7.50
2022-08-19T08:57:55.784Z,7.43
2022-08-19T09:02:56.885Z,7.78
2022-08-19T09:05:37.684Z,7.37
2022-08-19T09:08:29.984Z,7.47
2022-08-19T09:10:58.650Z,8.02
2022-08-19T09:13:39.336Z,7.45
2022-08-19T09:16:22.030Z,8.23
2022-08-19T09:18:59.891Z,7.57
2022-08-19T09:21:33.041Z,7.40
2022-08-19T09:24:00.146Z,7.18
2022-08-19T09:26:47.658Z,7.12
2022-08-19T09:29:14.955Z,7.53
2022-08-19T09:31:42.109Z,7.80
2022-08-19T09:34:21.758Z,7.80
2022-08-19T09:36:54.473Z,7.20
2022-08-19T09:39:22.645Z,7.45
2022-08-19T09:41:50.988Z,7.20
2022-08-19T09:44:19.135Z,8.05
2022-08-19T09:46:48.141Z,7.70
2022-08-19T09:49:18.305Z,7.50
2022-08-19T09:51:50.330Z,7.82
2022-08-19T09:54:23.505Z,7.72
2022-08-19T09:56:54.028Z,7.70
2022-08-19T09:59:21.403Z,7.70
2022-08-19T10:01:48.513Z,7.70
2022-08-19T10:04:19.918Z,7.97
2022-08-19T10:06:48.619Z,7.22
2022-08-19T10:09:26.205Z,8.25
2022-08-19T10:12:03.580Z,7.45
2022-08-19T10:14:31.331Z,8.30
2022-08-19T10:16:59.373Z,8.20
2022-08-19T10:19:27.309Z,7.10
2022-08-19T10:21:55.864Z,7.28
2022-08-19T10:24:28.795Z,7.78
2022-08-19T10:26:58.983Z,7.35
2022-08-19T10:29:32.655Z,7.30
2022-08-19T10:32:03.338Z,7.35
2022-08-19T10:34:31.570Z,7.93
2022-08-19T10:37:00.966Z,7.05
2022-08-19T10:39:31.274Z,6.78
2022-08-19T10:41:58.908Z,7.20
2022-08-19T10:44:32.234Z,7.57
2022-08-19T10:47:00.206Z,6.87
2022-08-19T10:49:28.224Z,6.97
2022-08-19T10:52:20.699Z,6.47
2022-08-19T10:55:08.879Z,6.20
2022-08-19T10:57:59.403Z,6.95
2022-08-19T11:00:24.991Z,6.72
2022-08-19T11:02:52.583Z,6.25
2022-08-19T11:05:19.835Z,5.85
2022-08-19T11:07:46.956Z,5.95
2022-08-19T11:10:20.910Z,6.43
2022-08-19T11:12:49.181Z,6.47
2022-08-19T11:15:16.573Z,6.00
2022-08-19T11:17:44.801Z,7.10
2022-08-19T11:20:13.987Z,6.30
2022-08-19T11:22:42.190Z,6.47
2022-08-19T11:25:10.716Z,6.87
2022-08-19T11:27:45.768Z,6.43
2022-08-19T11:30:14.751Z,7.10
2022-08-19T11:32:45.896Z,6.75
2022-08-19T11:35:17.192Z,6.68
2022-08-19T11:37:44.293Z,6.20
2022-08-19T11:40:11.935Z,6.28
2022-08-19T11:42:58.977Z,6.25
2022-08-19T11:45:29.054Z,6.10
2022-08-19T11:47:56.556Z,6.62
2022-08-19T11:50:24.562Z,6.40
2022-08-19T11:52:55.694Z,6.35
2022-08-19T11:55:23.758Z,5.87
2022-08-19T11:57:50.566Z,6.07
2022-08-19T12:00:17.559Z,6.55
2022-08-19T12:02:44.565Z,6.35
2022-08-19T12:05:12.830Z,6.30
2022-08-19T12:07:42.399Z,6.32
2022-08-19T12:10:10.709Z,6.22
2022-08-19T12:12:43.295Z,6.70
2022-08-19T12:15:11.994Z,6.43
2022-08-19T12:17:39.168Z,6.18
2022-08-19T12:20:08.573Z,6.40
2022-08-19T12:22:36.348Z,6.30
2022-08-19T12:25:04.724Z,7.20
2022-08-19T12:27:32.249Z,6.53
2022-08-19T12:30:18.882Z,6.37
2022-08-19T12:32:45.523Z,6.70
2022-08-19T12:35:12.808Z,6.32
2022-08-19T12:37:45.347Z,5.97
2022-08-19T12:40:23.494Z,7.03
2022-08-19T12:42:54.930Z,7.20
2022-08-19T12:45:22.592Z,6.45
2022-08-19T12:47:50.469Z,6.80
2022-08-19T12:50:22.468Z,7.12
2022-08-19T12:52:50.069Z,6.50
2022-08-19T12:55:16.951Z,6.82
2022-08-19T12:57:44.022Z,7.22
2022-08-19T13:00:19.528Z,6.43
2022-08-19T13:02:53.426Z,6.45
2022-08-19T13:05:23.814Z,8.38
2022-08-19T13:07:53.096Z,7.03
2022-08-19T13:10:21.264Z,7.03
2022-08-19T13:12:50.423Z,6.85
2022-08-19T13:15:23.819Z,6.68
2022-08-19T13:17:52.796Z,7.62
2022-08-19T13:20:21.544Z,7.28
2022-08-19T13:22:49.277Z,7.05
2022-08-19T13:25:18.581Z,6.45
2022-08-19T13:27:46.325Z,6.40
2022-08-19T13:30:34.371Z,6.30
2022-08-19T13:33:15.188Z,7.45
2022-08-19T13:35:57.956Z,6.85
2022-08-19T13:38:25.137Z,7.30
2022-08-19T13:40:53.568Z,6.43
2022-08-19T13:43:23.825Z,7.00
2022-08-19T13:45:56.303Z,6.43
2022-08-19T13:48:24.608Z,7.55
2022-08-19T13:50:51.878Z,7.00
2022-08-19T13:53:19.193Z,6.90
2022-08-19T13:55:46.006Z,6.97
2022-08-19T13:58:13.373Z,6.65
2022-08-19T14:00:43.829Z,7.78
2022-08-19T14:03:11.010Z,6.40
2022-08-19T14:05:38.212Z,6.18
2022-08-19T14:08:04.899Z,6.47
2022-08-19T14:10:32.942Z,6.18
2022-08-19T14:13:03.276Z,6.93
2022-08-19T14:15:31.251Z,6.37
2022-08-19T14:17:58.630Z,7.20
2022-08-19T14:20:26.287Z,6.37
2022-08-19T14:22:53.891Z,6.97
2022-08-19T14:25:27.172Z,6.50
2022-08-19T14:27:54.365Z,7.07
2022-08-19T14:30:28.598Z,6.37
2022-08-19T14:32:57.311Z,7.00
2022-08-19T14:35:24.887Z,6.97
2022-08-19T14:37:56.040Z,7.07
2022-08-19T14:40:29.073Z,6.82
2022-08-19T14:43:00.419Z,6.60
2022-08-19T14:45:29.256Z,7.68
2022-08-19T14:47:56.652Z,7.35
2022-08-19T14:50:23.720Z,7.12
2022-08-19T14:52:50.628Z,7.28
2022-08-19T14:55:19.195Z,6.75
2022-08-19T14:57:46.173Z,6.87
2022-08-19T15:00:14.339Z,6.50
2022-08-19T15:02:42.740Z,7.00
2022-08-19T15:05:10.016Z,6.85
2022-08-19T15:07:37.847Z,6.50
2022-08-19T15:10:10.564Z,6.72
2022-08-19T15:12:40.769Z,6.75
2022-08-19T15:15:13.670Z,6.67
2022-08-19T15:17:54.523Z,6.43
2022-08-19T15:20:23.688Z,6.57
2022-08-19T15:22:50.485Z,7.22
2022-08-19T15:25:19.581Z,6.50
2022-08-19T15:27:46.897Z,6.60
2022-08-19T15:30:23.551Z,7.30
2022-08-19T15:32:51.125Z,7.20
2022-08-19T15:35:19.399Z,7.30
2022-08-19T15:37:49.825Z,7.62
2022-08-19T15:40:17.549Z,6.55
2022-08-19T15:42:44.681Z,7.18
2022-08-19T15:45:13.484Z,6.65
2022-08-19T15:47:40.935Z,6.78
2022-08-19T15:50:12.854Z,6.62
2022-08-19T15:52:49.562Z,6.62
2022-08-19T15:55:33.426Z,7.90
2022-08-19T15:58:29.920Z,8.90
2022-08-19T16:01:20.494Z,7.00
2022-08-19T16:04:14.376Z,6.65
2022-08-19T16:06:51.926Z,6.40
2022-08-19T16:09:27.067Z,6.72
2022-08-19T16:12:02.713Z,6.43
2022-08-19T16:14:32.240Z,7.47
2022-08-19T16:16:59.204Z,7.15
2022-08-19T16:19:25.967Z,7.07
2022-08-19T16:21:55.359Z,7.50
2022-08-19T16:24:25.091Z,6.90
2022-08-19T16:26:51.839Z,7.00
2022-08-19T16:29:22.140Z,6.78
2022-08-19T16:32:07.455Z,7.40
2022-08-19T16:34:34.571Z,7.57
2022-08-19T16:37:01.861Z,6.40
2022-08-19T16:39:29.071Z,6.78
2022-08-19T16:41:56.093Z,6.85
2022-08-19T16:44:22.860Z,6.85
2022-08-19T16:46:58.642Z,6.93
2022-08-19T16:49:53.682Z,6.70
2022-08-19T16:52:16.106Z,6.80
2022-08-19T16:54:43.895Z,7.03
2022-08-19T16:57:12.520Z,6.60
2022-08-19T16:59:48.653Z,7.30
2022-08-19T17:02:18.319Z,6.53
2022-08-19T17:04:57.681Z,5.70
2022-08-19T17:07:29.595Z,6.03
2022-08-19T17:10:00.148Z,5.68
2022-08-19T17:12:30.525Z,5.82
2022-08-19T17:15:00.893Z,5.43
2022-08-19T17:17:29.281Z,5.93
2022-08-19T17:19:57.115Z,5.07
2022-08-19T17:22:24.001Z,4.93
2022-08-19T17:24:51.010Z,5.50
2022-08-19T17:27:19.773Z,5.82
2022-08-19T17:29:47.221Z,5.30
2022-08-19T17:32:15.346Z,5.47
2022-08-19T17:34:42.068Z,5.60
2022-08-19T17:37:08.824Z,5.65
2022-08-19T17:39:39.025Z,5.72
2022-08-19T17:42:08.040Z,5.25
2022-08-19T17:44:36.687Z,5.37
2022-08-19T17:47:04.657Z,5.15
2022-08-19T17:49:32.698Z,5.28
2022-08-19T17:52:00.618Z,4.75
2022-08-19T17:54:31.807Z,5.22
2022-08-19T17:57:01.486Z,5.20
2022-08-19T17:59:30.249Z,4.82
2022-08-19T18:01:57.883Z,5.30
2022-08-19T18:04:26.360Z,5.15
2022-08-19T18:06:55.564Z,5.30
2022-08-19T18:09:42.698Z,5.07
2022-08-19T18:12:11.728Z,4.97
2022-08-19T18:14:39.447Z,4.97
2022-08-19T18:17:09.521Z,5.30
2022-08-19T18:19:43.265Z,4.20
2022-08-19T18:22:24.496Z,4.55
2022-08-19T18:24:51.656Z,4.87
2022-08-19T18:27:18.808Z,4.60
2022-08-19T18:29:45.923Z,4.87
2022-08-19T18:32:13.407Z,5.60
2022-08-19T18:34:44.240Z,5.03
2022-08-19T18:37:12.019Z,5.93
2022-08-19T18:39:58.369Z,5.75
2022-08-19T18:42:44.213Z,4.82
2022-08-19T18:45:30.204Z,4.93
2022-08-19T18:48:26.366Z,4.85
2022-08-19T18:50:59.823Z,5.68
2022-08-19T18:53:28.591Z,5.43
2022-08-19T18:55:56.400Z,6.50
2022-08-19T18:58:36.027Z,5.65
2022-08-19T19:01:11.773Z,5.68
2022-08-19T19:03:45.772Z,5.37
2022-08-19T19:06:14.843Z,5.25
2022-08-19T19:08:41.602Z,5.40
2022-08-19T19:11:09.201Z,5.50
2022-08-19T19:13:39.706Z,5.35
2022-08-19T19:16:10.004Z,5.05
2022-08-19T19:18:37.388Z,6.60
2022-08-19T19:21:04.525Z,5.53
2022-08-19T19:23:31.213Z,5.53
2022-08-19T19:25:58.407Z,5.35
2022-08-19T19:28:29.058Z,5.80
2022-08-19T19:31:00.488Z,6.25
2022-08-19T19:33:28.255Z,5.75
2022-08-19T19:35:55.093Z,6.35
2022-08-19T19:38:21.858Z,5.95
2022-08-19T19:40:49.057Z,6.87
2022-08-19T19:43:17.185Z,6.10
2022-08-19T19:45:44.849Z,6.25
2022-08-19T19:48:14.879Z,5.72
2022-08-19T19:50:42.232Z,5.80
2022-08-19T19:53:09.155Z,6.15
2022-08-19T19:55:36.585Z,6.30
2022-08-19T19:58:06.885Z,5.70
2022-08-19T20:00:34.108Z,5.53
2022-08-19T20:03:01.603Z,5.95
2022-08-19T20:05:28.380Z,5.68
2022-08-19T20:08:14.889Z,6.25
2022-08-19T20:10:43.770Z,5.12
2022-08-19T20:13:11.830Z,6.05
2022-08-19T20:15:42.331Z,5.95
2022-08-19T20:18:11.185Z,6.80
2022-08-19T20:20:38.136Z,7.00
2022-08-19T20:23:05.251Z,6.97
2022-08-19T20:25:32.573Z,5.55
2022-08-19T20:28:01.173Z,6.20
2022-08-19T20:30:28.215Z,11.73
2022-08-19T20:32:58.862Z,6.85
2022-08-19T20:35:26.428Z,5.35
2022-08-19T20:37:58.101Z,6.47
2022-08-19T20:40:29.104Z,7.05
2022-08-19T20:42:56.719Z,6.15
2022-08-19T20:45:33.646Z,5.72
2022-08-19T20:48:03.377Z,5.82
2022-08-19T20:50:32.249Z,6.25
2022-08-19T20:52:59.214Z,5.43
2022-08-19T20:55:27.408Z,5.50
2022-08-19T20:57:54.821Z,5.90
2022-08-19T21:00:21.748Z,5.70
2022-08-19T21:02:48.857Z,6.05
2022-08-19T21:05:15.652Z,5.95
2022-08-19T21:07:42.620Z,6.03
2022-08-19T21:10:09.856Z,5.70
2022-08-19T21:12:36.530Z,6.45
2022-08-19T21:15:04.988Z,5.30
2022-08-19T21:17:32.017Z,5.45
2022-08-19T21:19:58.907Z,5.95
2022-08-19T21:22:25.630Z,6.22
2022-08-19T21:24:52.827Z,6.20
2022-08-19T21:27:19.567Z,5.80
2022-08-19T21:29:46.238Z,6.22
2022-08-19T21:32:14.191Z,6.35
2022-08-19T21:34:42.786Z,6.32
2022-08-19T21:37:24.725Z,6.05
2022-08-19T21:39:53.650Z,6.25
2022-08-19T21:42:24.102Z,6.35
2022-08-19T21:44:50.920Z,6.65
2022-08-19T21:47:17.712Z,6.70
2022-08-19T21:49:44.661Z,6.70
2022-08-19T21:52:11.549Z,6.62
2022-08-19T21:54:38.873Z,6.10
2022-08-19T21:57:10.139Z,6.90
2022-08-19T21:59:36.941Z,6.37
2022-08-19T22:02:19.206Z,6.43
2022-08-19T22:04:48.201Z,6.05
2022-08-19T22:07:15.626Z,6.75
2022-08-19T22:09:44.239Z,6.28
2022-08-19T22:12:23.371Z,6.20
2022-08-19T22:14:51.742Z,6.45
2022-08-19T22:17:19.959Z,6.60
2022-08-19T22:19:47.128Z,6.03
2022-08-19T22:22:20.272Z,6.62
2022-08-19T22:24:47.442Z,7.28
2022-08-19T22:27:14.098Z,5.80
2022-08-19T22:29:40.787Z,6.35
2022-08-19T22:32:26.557Z,5.62
2022-08-19T22:34:57.489Z,5.95
2022-08-19T22:37:25.371Z,6.07
2022-08-19T22:39:52.189Z,5.93
2022-08-19T22:42:20.493Z,5.68
2022-08-19T22:44:48.591Z,6.20
2022-08-19T22:47:15.652Z,5.93
2022-08-19T22:49:42.367Z,6.22
2022-08-19T22:52:17.536Z,6.12
2022-08-19T22:54:50.332Z,6.25
2022-08-19T22:57:21.684Z,5.47
2022-08-19T22:59:50.690Z,6.40
2022-08-19T23:02:27.900Z,6.25
2022-08-19T23:04:54.815Z,5.82
2022-08-19T23:07:23.572Z,6.50
2022-08-19T23:09:51.121Z,5.82
2022-08-19T23:12:30.751Z,6.03
2022-08-19T23:15:12.260Z,5.85
2022-08-19T23:17:40.642Z,5.62
2022-08-19T23:20:10.265Z,6.90
2022-08-19T23:22:39.511Z,6.28
2022-08-19T23:25:09.210Z,6.18
2022-08-19T23:27:55.028Z,6.10
2022-08-19T23:30:27.899Z,6.22
2022-08-19T23:33:15.109Z,5.87
2022-08-19T23:35:41.843Z,5.57
2022-08-19T23:38:10.116Z,5.78
2022-08-19T23:40:38.481Z,5.37
2022-08-19T23:43:08.184Z,5.28
2022-08-19T23:45:39.484Z,6.12
2022-08-19T23:48:07.152Z,5.72
2022-08-19T23:50:34.506Z,5.57
2022-08-19T23:53:01.791Z,5.97
2022-08-19T23:55:32.627Z,6.50
2022-08-19T23:57:59.870Z,6.37
